Time;durP1;ratioP1;P1;durP2;ratioP2;P2;SDS_P1;SDS_P2;PMS_P1;PMS_P2;Temp;Humidity;BMP_temperature;BMP_pressure;BME280_temperature;BME280_humidity;BME280_pressure;Samples;Min_cycle;Max_cycle;Signal;HPM_P1;HPM_P2
2023/04/14 00:00:44;;;;;;;;;;;;;;;;;;5051375;28;19927;-58
2023/04/14 00:03:10;;;;;;;;;;;;;;;;;;5051234;28;19932;-58
2023/04/14 00:05:36;;;;;;;;;;;;;;;;;;5050623;28;20070;-58
2023/04/14 00:08:02;;;;;;;;;;;;;;;;;;5051181;28;19929;-58
2023/04/14 00:10:28;;;;;;;;;;;;;;;;;;5050931;28;19924;-58
2023/04/14 00:12:55;;;;;;;;;;;;;;;;;;5050452;28;19928;-58
2023/04/14 00:15:21;;;;;;;;;;;;;;;;;;5051068;28;19925;-59
2023/04/14 00:17:47;;;;;;;;;;;;;;;;;;5051029;28;19920;-59
2023/04/14 00:20:13;;;;;;;;;;;;;;;;;;5050390;28;20391;-59
2023/04/14 00:22:38;;;;;;;;;;;;;;;;;;5049278;28;19991;-58
2023/04/14 00:25:05;;;;;;;;;;;;;;;;;;5050829;28;19924;-57
2023/04/14 00:27:31;;;;;;;;;;;;;;;;;;5050151;28;19936;-58
2023/04/14 00:29:57;;;;;;;;;;;;;;;;;;5050848;28;19921;-58
2023/04/14 00:32:23;;;;;;;;;;;;;;;;;;5050803;28;19929;-58
2023/04/14 00:34:49;;;;;;;;;;;;;;;;;;5050547;28;20039;-58
2023/04/14 00:37:15;;;;;;;;;;;;;;;;;;5051008;28;19924;-58
2023/04/14 00:39:41;;;;;;;;;;;;;;;;;;5050584;28;19925;-58
2023/04/14 00:42:07;;;;;;;;;;;;;;;;;;5050065;28;19933;-58
2023/04/14 00:44:33;;;;;;;;;;;;;;;;;;5050605;28;19968;-59
2023/04/14 00:46:59;;;;;;;;;;;;;;;;;;5050659;28;19921;-59
2023/04/14 00:49:25;;;;;;;;;;;;;;;;;;5050101;28;19925;-57
2023/04/14 00:51:51;;;;;;;;;;;;;;;;;;5050446;28;19925;-58
2023/04/14 00:54:17;;;;;;;;;;;;;;;;;;5050557;28;19943;-58
2023/04/14 00:56:43;;;;;;;;;;;;;;;;;;5050038;28;19929;-58
2023/04/14 00:59:09;;;;;;;;;;;;;;;;;;5049467;28;19927;-58
2023/04/14 01:01:39;;;;;;;;;;;;;;;;;;5049201;28;19931;-58
2023/04/14 01:04:05;;;;;;;;;;;;;;;;;;5050023;28;19924;-59
2023/04/14 01:06:31;;;;;;;;;;;;;;;;;;5050494;28;19931;-59
2023/04/14 01:08:57;;;;;;;;;;;;;;;;;;5050330;28;19952;-58
2023/04/14 01:11:23;;;;;;;;;;;;;;;;;;5049746;28;19929;-58
2023/04/14 01:13:49;;;;;;;;;;;;;;;;;;5050615;28;20617;-58
2023/04/14 01:16:15;;;;;;;;;;;;;;;;;;5050140;28;19925;-59
2023/04/14 01:18:41;;;;;;;;;;;;;;;;;;5049790;28;19928;-59
2023/04/14 01:21:07;;;;;;;;;;;;;;;;;;5051456;28;19921;-59
2023/04/14 01:23:34;;;;;;;;;;;;;;;;;;5053589;28;19940;-59
2023/04/14 01:26:00;;;;;;;;;;;;;;;;;;5053297;28;20082;-57
2023/04/14 01:28:26;;;;;;;;;;;;;;;;;;5053999;28;20411;-59
2023/04/14 01:30:52;;;;;;;;;;;;;;;;;;5053741;28;19920;-57
2023/04/14 01:33:18;;;;;;;;;;;;;;;;;;5052020;28;19928;-58
2023/04/14 01:35:44;;;;;;;;;;;;;;;;;;5053766;28;19921;-58
2023/04/14 01:38:10;;;;;;;;;;;;;;;;;;5053837;28;19921;-58
2023/04/14 01:40:36;;;;;;;;;;;;;;;;;;5053200;28;19992;-58
2023/04/14 01:43:02;;;;;;;;;;;;;;;;;;5053687;28;19927;-59
2023/04/14 01:45:28;;;;;;;;;;;;;;;;;;5053644;28;19978;-59
2023/04/14 01:47:54;;;;;;;;;;;;;;;;;;5053036;28;19936;-58
2023/04/14 01:50:20;;;;;;;;;;;;;;;;;;5053596;28;19925;-57
2023/04/14 01:52:50;;;;;;;;;;;;;;;;;;5053522;28;19921;-57
2023/04/14 01:55:16;;;;;;;;;;;;;;;;;;5052918;28;19921;-57
2023/04/14 01:57:42;;;;;;;;;;;;;;;;;;5053322;28;20478;-58
2023/04/14 02:00:08;;;;;;;;;;;;;;;;;;5053311;28;19977;-58
2023/04/14 02:02:36;;;;;;;;;;;;;;;;;;5052844;28;19921;-59
2023/04/14 02:05:04;;;;;;;;;;;;;;;;;;5052152;28;20380;-59
2023/04/14 02:07:30;;;;;;;;;;;;;;;;;;5053016;28;19948;-59
2023/04/14 02:09:56;;;;;;;;;;;;;;;;;;5052678;28;19921;-59
2023/04/14 02:12:22;;;;;;;;;;;;;;;;;;5053176;28;19921;-58
2023/04/14 02:14:48;;;;;;;;;;;;;;;;;;5053188;28;19924;-58
2023/04/14 02:17:14;;;;;;;;;;;;;;;;;;5051678;28;19924;-59
2023/04/14 02:19:40;;;;;;;;;;;;;;;;;;5052848;28;19928;-59
2023/04/14 02:22:06;;;;;;;;;;;;;;;;;;5052502;28;19990;-59
2023/04/14 02:24:32;;;;;;;;;;;;;;;;;;5052924;28;19921;-59
2023/04/14 02:26:58;;;;;;;;;;;;;;;;;;5052240;28;19921;-58
2023/04/14 02:29:24;;;;;;;;;;;;;;;;;;5052749;28;19925;-58
2023/04/14 02:31:50;;;;;;;;;;;;;;;;;;5052583;28;20321;-58
2023/04/14 02:34:17;;;;;;;;;;;;;;;;;;5052255;28;19952;-57
2023/04/14 02:36:43;;;;;;;;;;;;;;;;;;5052699;28;19921;-58
2023/04/14 02:39:09;;;;;;;;;;;;;;;;;;5052667;28;20031;-58
2023/04/14 02:41:35;;;;;;;;;;;;;;;;;;5051967;28;20015;-58
2023/04/14 02:44:01;;;;;;;;;;;;;;;;;;5052624;28;19925;-58
2023/04/14 02:46:27;;;;;;;;;;;;;;;;;;5052486;28;19931;-58
2023/04/14 02:48:53;;;;;;;;;;;;;;;;;;5051818;28;19928;-59
2023/04/14 02:51:19;;;;;;;;;;;;;;;;;;5052104;28;19921;-59
2023/04/14 02:53:45;;;;;;;;;;;;;;;;;;5052439;28;19920;-58
2023/04/14 02:56:11;;;;;;;;;;;;;;;;;;5051752;28;20003;-58
2023/04/14 02:58:37;;;;;;;;;;;;;;;;;;5051147;28;19966;-58
2023/04/14 03:01:03;;;;;;;;;;;;;;;;;;5052130;28;19932;-59
2023/04/14 03:03:29;;;;;;;;;;;;;;;;;;5051607;28;19924;-58
2023/04/14 03:05:55;;;;;;;;;;;;;;;;;;5052169;28;19927;-57
2023/04/14 03:08:21;;;;;;;;;;;;;;;;;;5050593;28;20375;-58
2023/04/14 03:10:47;;;;;;;;;;;;;;;;;;5051552;28;19925;-58
2023/04/14 03:13:13;;;;;;;;;;;;;;;;;;5051986;28;20020;-59
2023/04/14 03:15:39;;;;;;;;;;;;;;;;;;5052107;28;19962;-59
2023/04/14 03:18:05;;;;;;;;;;;;;;;;;;5051380;28;19931;-58
2023/04/14 03:20:31;;;;;;;;;;;;;;;;;;5051507;28;19921;-59
2023/04/14 03:23:00;;;;;;;;;;;;;;;;;;5049970;28;19928;-59
2023/04/14 03:25:26;;;;;;;;;;;;;;;;;;5049433;28;19920;-59
2023/04/14 03:27:52;;;;;;;;;;;;;;;;;;5051596;28;20310;-59
2023/04/14 03:30:18;;;;;;;;;;;;;;;;;;5051645;28;19962;-58
2023/04/14 03:32:46;;;;;;;;;;;;;;;;;;5050350;28;21280;-58
2023/04/14 03:35:13;;;;;;;;;;;;;;;;;;5051821;28;20019;-58
2023/04/14 03:37:39;;;;;;;;;;;;;;;;;;5051601;28;19925;-58
2023/04/14 03:40:06;;;;;;;;;;;;;;;;;;5049437;28;19921;-59
2023/04/14 03:42:31;;;;;;;;;;;;;;;;;;5051477;28;19931;-59
2023/04/14 03:45:00;;;;;;;;;;;;;;;;;;5050913;28;20371;-59
2023/04/14 03:47:29;;;;;;;;;;;;;;;;;;5050718;28;19970;-59
2023/04/14 03:49:56;;;;;;;;;;;;;;;;;;5051170;28;19921;-59
2023/04/14 03:52:22;;;;;;;;;;;;;;;;;;5051447;28;20302;-58
2023/04/14 03:54:48;;;;;;;;;;;;;;;;;;5050621;28;20016;-59
2023/04/14 03:57:16;;;;;;;;;;;;;;;;;;5051083;28;19933;-58
2023/04/14 03:59:42;;;;;;;;;;;;;;;;;;5051055;28;19924;-58
2023/04/14 04:02:08;;;;;;;;;;;;;;;;;;5050181;28;19970;-59
2023/04/14 04:04:35;;;;;;;;;;;;;;;;;;5050981;28;19990;-59
2023/04/14 04:07:01;;;;;;;;;;;;;;;;;;5050970;28;19925;-59
2023/04/14 04:09:27;;;;;;;;;;;;;;;;;;5049081;28;19925;-59
2023/04/14 04:11:53;;;;;;;;;;;;;;;;;;5050751;28;19964;-59
2023/04/14 04:14:19;;;;;;;;;;;;;;;;;;5051250;28;19921;-58
2023/04/14 04:16:46;;;;;;;;;;;;;;;;;;5050563;28;19921;-58
2023/04/14 04:19:12;;;;;;;;;;;;;;;;;;5051013;28;20023;-58
2023/04/14 04:21:39;;;;;;;;;;;;;;;;;;5050498;28;20406;-59
2023/04/14 04:24:05;;;;;;;;;;;;;;;;;;5050498;28;19944;-61
2023/04/14 04:26:31;;;;;;;;;;;;;;;;;;5050883;28;20019;-59
2023/04/14 04:28:57;;;;;;;;;;;;;;;;;;5050949;28;20022;-59
2023/04/14 04:31:23;;;;;;;;;;;;;;;;;;5049563;28;20328;-58
2023/04/14 04:33:49;;;;;;;;;;;;;;;;;;5050721;28;19931;-58
2023/04/14 04:36:15;;;;;;;;;;;;;;;;;;5050777;28;19947;-58
2023/04/14 04:38:41;;;;;;;;;;;;;;;;;;5049865;28;19978;-58
2023/04/14 04:41:07;;;;;;;;;;;;;;;;;;5050680;28;19925;-59
2023/04/14 04:43:33;;;;;;;;;;;;;;;;;;5050694;28;19931;-59
2023/04/14 04:45:59;;;;;;;;;;;;;;;;;;5049568;28;20074;-58
2023/04/14 04:48:25;;;;;;;;;;;;;;;;;;5050463;28;19925;-59
2023/04/14 04:50:51;;;;;;;;;;;;;;;;;;5050421;28;19931;-59
2023/04/14 04:53:17;;;;;;;;;;;;;;;;;;5048775;28;20004;-59
2023/04/14 04:55:43;;;;;;;;;;;;;;;;;;5051245;28;19939;-58
2023/04/14 04:58:10;;;;;;;;;;;;;;;;;;5054858;28;19928;-58
2023/04/14 05:00:36;;;;;;;;;;;;;;;;;;5053805;28;19920;-59
2023/04/14 05:03:02;;;;;;;;;;;;;;;;;;5054417;28;19921;-58
2023/04/14 05:05:28;;;;;;;;;;;;;;;;;;5054436;28;19927;-59
2023/04/14 05:07:54;;;;;;;;;;;;;;;;;;5053663;28;20390;-58
2023/04/14 05:10:20;;;;;;;;;;;;;;;;;;5054437;28;20294;-58
2023/04/14 05:12:46;;;;;;;;;;;;;;;;;;5054266;28;19947;-58
2023/04/14 05:15:12;;;;;;;;;;;;;;;;;;5053767;28;19924;-58
2023/04/14 05:17:38;;;;;;;;;;;;;;;;;;5052994;28;19920;-60
2023/04/14 05:20:04;;;;;;;;;;;;;;;;;;5052111;28;19925;-60
2023/04/14 05:22:30;;;;;;;;;;;;;;;;;;5051382;28;19925;-60
2023/04/14 05:24:56;;;;;;;;;;;;;;;;;;5053607;28;19974;-60
2023/04/14 05:27:22;;;;;;;;;;;;;;;;;;5053315;28;20015;-59
2023/04/14 05:29:48;;;;;;;;;;;;;;;;;;5052980;28;19928;-61
2023/04/14 05:32:14;;;;;;;;;;;;;;;;;;5051571;28;19932;-59
2023/04/14 05:34:40;;;;;;;;;;;;;;;;;;5045002;28;19931;-58
2023/04/14 05:37:06;;;;;;;;;;;;;;;;;;5052475;28;19920;-60
2023/04/14 05:39:32;;;;;;;;;;;;;;;;;;5053149;28;19921;-59
2023/04/14 05:41:58;;;;;;;;;;;;;;;;;;5053313;28;19925;-59
2023/04/14 05:44:27;;;;;;;;;;;;;;;;;;5053212;28;20605;-60
2023/04/14 05:46:53;;;;;;;;;;;;;;;;;;5052684;28;19971;-59
2023/04/14 05:49:19;;;;;;;;;;;;;;;;;;5052847;28;20515;-60
2023/04/14 05:51:44;;;;;;;;;;;;;;;;;;5052684;28;19921;-60
2023/04/14 05:54:10;;;;;;;;;;;;;;;;;;5052616;28;19921;-60
2023/04/14 05:56:36;;;;;;;;;;;;;;;;;;5053424;28;19990;-60
2023/04/14 05:59:02;;;;;;;;;;;;;;;;;;5052846;28;19925;-59
2023/04/14 06:01:28;;;;;;;;;;;;;;;;;;5052527;28;19921;-59
2023/04/14 06:03:54;;;;;;;;;;;;;;;;;;5052931;28;20011;-59
2023/04/14 06:06:20;;;;;;;;;;;;;;;;;;5051025;28;19932;-59
2023/04/14 06:08:46;;;;;;;;;;;;;;;;;;5052258;28;20018;-59
2023/04/14 06:11:13;;;;;;;;;;;;;;;;;;5052782;28;20004;-60
2023/04/14 06:13:39;;;;;;;;;;;;;;;;;;5052462;28;19928;-58
2023/04/14 06:16:05;;;;;;;;;;;;;;;;;;5050780;28;19921;-59
2023/04/14 06:18:31;;;;;;;;;;;;;;;;;;5052441;28;19925;-60
2023/04/14 06:20:57;;;;;;;;;;;;;;;;;;5052877;28;19968;-60
2023/04/14 06:23:25;;;;;;;;;;;;;;;;;;5051612;28;19933;-60
2023/04/14 06:25:51;;;;;;;;;;;;;;;;;;5052610;28;19925;-61
2023/04/14 06:28:18;;;;;;;;;;;;;;;;;;5052402;28;20350;-61
2023/04/14 06:30:44;;;;;;;;;;;;;;;;;;5051655;28;19924;-60
2023/04/14 06:33:10;;;;;;;;;;;;;;;;;;5050921;28;19924;-60
2023/04/14 06:35:36;;;;;;;;;;;;;;;;;;5052376;28;20279;-60
2023/04/14 06:38:02;;;;;;;;;;;;;;;;;;5051731;28;19929;-60
2023/04/14 06:40:28;;;;;;;;;;;;;;;;;;5051899;28;19990;-61
2023/04/14 06:42:54;;;;;;;;;;;;;;;;;;5052141;28;19933;-59
2023/04/14 06:45:20;;;;;;;;;;;;;;;;;;5050232;28;20228;-58
2023/04/14 06:47:46;;;;;;;;;;;;;;;;;;5050924;28;20414;-58
2023/04/14 06:50:13;;;;;;;;;;;;;;;;;;5051804;28;19920;-59
2023/04/14 06:52:39;;;;;;;;;;;;;;;;;;5050019;28;19920;-59
2023/04/14 06:55:05;;;;;;;;;;;;;;;;;;5051889;28;19932;-59
2023/04/14 06:57:31;;;;;;;;;;;;;;;;;;5070372;28;20007;-61
2023/04/14 06:59:57;;;;;;;;;;;;;;;;;;5004446;28;19955;-60
2023/04/14 07:02:23;;;;;;;;;;;;;;;;;;5049366;28;19922;-60
2023/04/14 07:04:49;;;;;;;;;;;;;;;;;;5032360;28;19921;-60
2023/04/14 07:07:15;;;;;;;;;;;;;;;;;;5046624;28;19921;-60
2023/04/14 07:09:41;;;;;;;;;;;;;;;;;;5050759;28;19929;-59
2023/04/14 07:12:07;;;;;;;;;;;;;;;;;;5051347;28;19924;-60
2023/04/14 07:14:33;;;;;;;;;;;;;;;;;;5045685;28;19921;-58
2023/04/14 07:16:59;;;;;;;;;;;;;;;;;;5039069;28;19999;-61
2023/04/14 07:19:25;;;;;;;;;;;;;;;;;;5048806;28;19928;-60
2023/04/14 07:21:50;;;;;;;;;;;;;;;;;;5049058;28;20016;-59
2023/04/14 07:24:16;;;;;;;;;;;;;;;;;;5051345;28;19921;-61
2023/04/14 07:26:43;;;;;;;;;;;;;;;;;;5051084;28;20468;-61
2023/04/14 07:29:09;;;;;;;;;;;;;;;;;;5050590;28;20051;-61
2023/04/14 07:31:36;;;;;;;;;;;;;;;;;;5049200;28;19952;-60
2023/04/14 07:34:02;;;;;;;;;;;;;;;;;;5051132;28;19979;-61
2023/04/14 07:36:28;;;;;;;;;;;;;;;;;;5050515;28;19972;-60
2023/04/14 07:38:55;;;;;;;;;;;;;;;;;;5050909;28;19928;-60
2023/04/14 07:41:21;;;;;;;;;;;;;;;;;;5050808;28;19921;-60
2023/04/14 07:43:47;;;;;;;;;;;;;;;;;;5050251;28;19921;-61
2023/04/14 07:46:13;;;;;;;;;;;;;;;;;;5046026;28;19929;-60
2023/04/14 07:48:39;;;;;;;;;;;;;;;;;;5041695;28;19932;-61
2023/04/14 07:51:05;;;;;;;;;;;;;;;;;;5049914;28;20370;-60
2023/04/14 07:53:31;;;;;;;;;;;;;;;;;;5051228;28;20593;-60
2023/04/14 07:55:57;;;;;;;;;;;;;;;;;;5028005;28;20291;-60
2023/04/14 07:58:23;;;;;;;;;;;;;;;;;;5050085;28;19920;-59
2023/04/14 08:00:49;;;;;;;;;;;;;;;;;;5050259;28;20355;-60
2023/04/14 08:03:15;;;;;;;;;;;;;;;;;;5050592;28;19920;-60
2023/04/14 08:05:42;;;;;;;;;;;;;;;;;;5050300;28;20455;-59
2023/04/14 08:08:17;;;;;;;;;;;;;;;;;;5050593;28;19935;-60
2023/04/14 08:10:43;;;;;;;;;;;;;;;;;;5046708;28;20022;-59
2023/04/14 08:13:09;;;;;;;;;;;;;;;;;;5044309;28;19967;-59
2023/04/14 08:15:35;;;;;;;;;;;;;;;;;;5045967;28;19928;-60
2023/04/14 08:18:01;;;;;;;;;;;;;;;;;;5041730;28;19924;-60
2023/04/14 08:20:27;;;;;;;;;;;;;;;;;;5041085;28;19948;-59
2023/04/14 08:22:53;;;;;;;;;;;;;;;;;;5049689;28;19979;-60
2023/04/14 08:25:19;;;;;;;;;;;;;;;;;;5038157;28;19928;-59
2023/04/14 08:27:45;;;;;;;;;;;;;;;;;;5049768;28;19964;-60
2023/04/14 08:30:11;;;;;;;;;;;;;;;;;;5052927;28;20745;-60
2023/04/14 08:32:37;;;;;;;;;;;;;;;;;;5051336;28;19929;-60
2023/04/14 08:35:03;;;;;;;;;;;;;;;;;;5049026;28;20022;-59
2023/04/14 08:37:29;;;;;;;;;;;;;;;;;;5052481;28;19930;-59
2023/04/14 08:39:55;;;;;;;;;;;;;;;;;;5056048;28;19924;-61
2023/04/14 08:42:21;;;;;;;;;;;;;;;;;;5056538;28;20623;-59
2023/04/14 08:44:47;;;;;;;;;;;;;;;;;;5056734;28;19920;-61
2023/04/14 08:47:13;;;;;;;;;;;;;;;;;;5052469;28;19929;-61
2023/04/14 08:49:40;;;;;;;;;;;;;;;;;;5051575;28;19925;-60
2023/04/14 08:52:06;;;;;;;;;;;;;;;;;;5056411;28;20397;-61
2023/04/14 08:54:32;;;;;;;;;;;;;;;;;;5057021;28;19925;-60
2023/04/14 08:56:58;;;;;;;;;;;;;;;;;;5056136;28;19920;-60
2023/04/14 08:59:26;;;;;;;;;;;;;;;;;;5056772;28;20359;-62
2023/04/14 09:01:52;;;;;;;;;;;;;;;;;;5055963;28;20333;-62
2023/04/14 09:04:19;;;;;;;;;;;;;;;;;;5055897;28;19921;-61
2023/04/14 09:06:45;;;;;;;;;;;;;;;;;;5047478;28;19921;-60
2023/04/14 09:09:10;;;;;;;;;;;;;;;;;;5051095;28;20011;-60
2023/04/14 09:11:36;;;;;;;;;;;;;;;;;;5047778;28;19947;-60
2023/04/14 09:14:02;;;;;;;;;;;;;;;;;;5054404;28;19941;-59
2023/04/14 09:16:29;;;;;;;;;;;;;;;;;;5056157;28;19986;-60
2023/04/14 09:18:55;;;;;;;;;;;;;;;;;;5056601;28;19921;-60
2023/04/14 09:21:21;;;;;;;;;;;;;;;;;;5055941;28;19928;-61
2023/04/14 09:23:47;;;;;;;;;;;;;;;;;;5056062;28;19935;-62
2023/04/14 09:26:12;;;;;;;;;;;;;;;;;;5051711;28;20359;-62
2023/04/14 09:28:38;;;;;;;;;;;;;;;;;;5055863;28;19999;-61
2023/04/14 09:31:04;;;;;;;;;;;;;;;;;;5051995;28;20035;-62
2023/04/14 09:33:31;;;;;;;;;;;;;;;;;;5047782;28;19921;-62
2023/04/14 09:35:57;;;;;;;;;;;;;;;;;;5055223;28;20363;-62
2023/04/14 09:38:23;;;;;;;;;;;;;;;;;;5056664;28;19920;-63
2023/04/14 09:40:51;;;;;;;;;;;;;;;;;;5056241;28;20405;-61
2023/04/14 09:43:17;;;;;;;;;;;;;;;;;;5051700;28;20003;-61
2023/04/14 09:45:43;;;;;;;;;;;;;;;;;;5053053;28;20074;-62
2023/04/14 09:48:09;;;;;;;;;;;;;;;;;;5052678;28;19929;-60
2023/04/14 09:50:35;;;;;;;;;;;;;;;;;;5052478;28;20362;-60
2023/04/14 09:53:02;;;;;;;;;;;;;;;;;;5052380;28;19924;-59
2023/04/14 09:55:29;;;;;;;;;;;;;;;;;;5052544;28;20268;-60
2023/04/14 09:57:55;;;;;;;;;;;;;;;;;;5052619;28;19924;-61
2023/04/14 10:00:22;;;;;;;;;;;;;;;;;;5052685;28;19999;-61
2023/04/14 10:02:48;;;;;;;;;;;;;;;;;;5053092;28;20011;-60
2023/04/14 10:05:15;;;;;;;;;;;;;;;;;;5052035;28;20328;-58
2023/04/14 10:07:41;;;;;;;;;;;;;;;;;;5052245;28;20302;-61
2023/04/14 10:10:07;;;;;;;;;;;;;;;;;;5052772;28;20015;-61
2023/04/14 10:12:33;;;;;;;;;;;;;;;;;;5051991;28;20410;-61
2023/04/14 10:14:59;;;;;;;;;;;;;;;;;;5052601;28;19967;-61
2023/04/14 10:17:25;;;;;;;;;;;;;;;;;;5052428;28;19921;-60
2023/04/14 10:19:51;;;;;;;;;;;;;;;;;;5051316;28;19920;-61
2023/04/14 10:22:17;;;;;;;;;;;;;;;;;;5052500;28;19935;-60
2023/04/14 10:24:43;;;;;;;;;;;;;;;;;;5051978;28;19925;-62
2023/04/14 10:27:09;;;;;;;;;;;;;;;;;;5051865;28;19925;-61
2023/04/14 10:29:35;;;;;;;;;;;;;;;;;;5052496;28;20379;-60
2023/04/14 10:32:02;;;;;;;;;;;;;;;;;;5047514;28;19929;-61
2023/04/14 10:34:27;;;;;;;;;;;;;;;;;;5047337;28;19921;-61
2023/04/14 10:36:53;;;;;;;;;;;;;;;;;;5052317;28;19932;-61
2023/04/14 10:39:19;;;;;;;;;;;;;;;;;;5052007;28;19924;-64
2023/04/14 10:41:46;;;;;;;;;;;;;;;;;;5051279;28;19927;-62
2023/04/14 10:44:11;;;;;;;;;;;;;;;;;;5051356;28;19925;-61
2023/04/14 10:46:37;;;;;;;;;;;;;;;;;;5052343;28;19927;-59
2023/04/14 10:49:03;;;;;;;;;;;;;;;;;;5051503;28;19924;-59
2023/04/14 10:51:30;;;;;;;;;;;;;;;;;;5052257;28;19975;-58
2023/04/14 10:53:56;;;;;;;;;;;;;;;;;;5049674;28;19933;-59
2023/04/14 10:56:23;;;;;;;;;;;;;;;;;;5051548;28;20413;-60
2023/04/14 10:58:49;;;;;;;;;;;;;;;;;;5052166;28;19921;-61
2023/04/14 11:01:15;;;;;;;;;;;;;;;;;;5051965;28;19958;-61
2023/04/14 11:03:41;;;;;;;;;;;;;;;;;;5051103;28;19947;-61
2023/04/14 11:06:07;;;;;;;;;;;;;;;;;;5051963;28;20020;-60
2023/04/14 11:08:33;;;;;;;;;;;;;;;;;;5050520;28;19924;-61
2023/04/14 11:10:59;;;;;;;;;;;;;;;;;;5051345;28;20007;-60
2023/04/14 11:13:25;;;;;;;;;;;;;;;;;;5051870;28;19921;-60
2023/04/14 11:15:51;;;;;;;;;;;;;;;;;;5051724;28;19925;-59
2023/04/14 11:18:17;;;;;;;;;;;;;;;;;;5051355;28;20023;-61
2023/04/14 11:20:43;;;;;;;;;;;;;;;;;;5051696;28;20419;-61
2023/04/14 11:23:09;;;;;;;;;;;;;;;;;;5051500;28;19924;-60
2023/04/14 11:25:35;;;;;;;;;;;;;;;;;;5051004;28;20029;-60
2023/04/14 11:28:01;;;;;;;;;;;;;;;;;;5051319;28;19928;-59
2023/04/14 11:30:27;;;;;;;;;;;;;;;;;;5051323;28;20008;-61
2023/04/14 11:32:53;;;;;;;;;;;;;;;;;;5050459;28;19925;-61
2023/04/14 11:35:19;;;;;;;;;;;;;;;;;;5050984;28;20079;-61
2023/04/14 11:37:45;;;;;;;;;;;;;;;;;;5051334;28;19932;-62
2023/04/14 11:40:11;;;;;;;;;;;;;;;;;;5050437;28;19929;-61
2023/04/14 11:42:37;;;;;;;;;;;;;;;;;;5051366;28;19953;-61
2023/04/14 11:45:03;;;;;;;;;;;;;;;;;;5051257;28;19920;-60
2023/04/14 11:47:29;;;;;;;;;;;;;;;;;;5050486;28;19932;-60
2023/04/14 11:49:55;;;;;;;;;;;;;;;;;;5050929;28;19971;-60
2023/04/14 11:52:21;;;;;;;;;;;;;;;;;;5050798;28;20335;-60
2023/04/14 11:54:47;;;;;;;;;;;;;;;;;;5050304;28;20394;-61
2023/04/14 11:57:16;;;;;;;;;;;;;;;;;;5050765;28;19932;-60
2023/04/14 11:59:42;;;;;;;;;;;;;;;;;;5050598;28;19925;-61
2023/04/14 12:02:08;;;;;;;;;;;;;;;;;;5050554;28;19932;-61
2023/04/14 12:04:34;;;;;;;;;;;;;;;;;;5050728;28;19928;-61
2023/04/14 12:07:00;;;;;;;;;;;;;;;;;;5051024;28;19963;-61
2023/04/14 12:09:26;;;;;;;;;;;;;;;;;;5048611;28;20011;-61
2023/04/14 12:11:52;;;;;;;;;;;;;;;;;;5050534;28;20055;-61
2023/04/14 12:14:18;;;;;;;;;;;;;;;;;;5050882;28;19928;-61
2023/04/14 12:16:44;;;;;;;;;;;;;;;;;;5050450;28;19924;-62
2023/04/14 12:19:10;;;;;;;;;;;;;;;;;;5050842;28;19931;-61
2023/04/14 12:21:36;;;;;;;;;;;;;;;;;;5050157;28;19970;-61
2023/04/14 12:24:02;;;;;;;;;;;;;;;;;;5050512;28;20019;-61
2023/04/14 12:26:28;;;;;;;;;;;;;;;;;;5049897;28;19920;-61
2023/04/14 12:28:54;;;;;;;;;;;;;;;;;;5050472;28;19928;-60
2023/04/14 12:31:21;;;;;;;;;;;;;;;;;;5050738;28;19960;-60
2023/04/14 12:33:46;;;;;;;;;;;;;;;;;;5049371;28;19931;-61
2023/04/14 12:36:12;;;;;;;;;;;;;;;;;;5050501;28;20301;-61
2023/04/14 12:38:38;;;;;;;;;;;;;;;;;;5050647;28;20007;-61
2023/04/14 12:41:05;;;;;;;;;;;;;;;;;;5049344;28;19936;-61
2023/04/14 12:43:30;;;;;;;;;;;;;;;;;;5050249;28;19924;-61
2023/04/14 12:45:59;;;;;;;;;;;;;;;;;;5050436;28;19931;-61
2023/04/14 12:48:25;;;;;;;;;;;;;;;;;;5049578;28;20528;-62
2023/04/14 12:50:51;;;;;;;;;;;;;;;;;;5050329;28;19947;-61
2023/04/14 12:53:17;;;;;;;;;;;;;;;;;;5050366;28;19948;-61
2023/04/14 12:55:43;;;;;;;;;;;;;;;;;;5049694;28;19925;-61
2023/04/14 12:58:09;;;;;;;;;;;;;;;;;;5050436;28;19931;-61
2023/04/14 13:00:35;;;;;;;;;;;;;;;;;;5050248;28;19921;-61
2023/04/14 13:03:01;;;;;;;;;;;;;;;;;;5049827;28;19924;-61
2023/04/14 13:05:27;;;;;;;;;;;;;;;;;;5050107;28;20311;-61
2023/04/14 13:07:53;;;;;;;;;;;;;;;;;;5050050;28;19925;-61
2023/04/14 13:10:19;;;;;;;;;;;;;;;;;;5049638;28;19927;-61
2023/04/14 13:12:46;;;;;;;;;;;;;;;;;;5050262;28;19955;-60
2023/04/14 13:15:12;;;;;;;;;;;;;;;;;;5048907;28;19953;-60
2023/04/14 13:17:38;;;;;;;;;;;;;;;;;;5050220;28;20011;-61
2023/04/14 13:20:04;;;;;;;;;;;;;;;;;;5054004;28;20015;-61
2023/04/14 13:22:30;;;;;;;;;;;;;;;;;;5053947;28;19928;-61
2023/04/14 13:24:58;;;;;;;;;;;;;;;;;;5053219;28;19975;-61
2023/04/14 13:27:24;;;;;;;;;;;;;;;;;;5054073;28;19925;-61
2023/04/14 13:29:50;;;;;;;;;;;;;;;;;;5053627;28;19929;-61
2023/04/14 13:32:17;;;;;;;;;;;;;;;;;;5053404;28;19977;-62
2023/04/14 13:34:43;;;;;;;;;;;;;;;;;;5054019;28;19928;-62
2023/04/14 13:37:09;;;;;;;;;;;;;;;;;;5053623;28;19921;-61
2023/04/14 13:39:35;;;;;;;;;;;;;;;;;;5053180;28;20349;-61
2023/04/14 13:42:00;;;;;;;;;;;;;;;;;;5053781;28;19971;-61
2023/04/14 13:44:26;;;;;;;;;;;;;;;;;;5053798;28;19921;-61
2023/04/14 13:46:52;;;;;;;;;;;;;;;;;;5052895;28;19921;-61
2023/04/14 13:49:19;;;;;;;;;;;;;;;;;;5053632;28;20330;-61
2023/04/14 13:51:45;;;;;;;;;;;;;;;;;;5053583;28;20320;-61
2023/04/14 13:54:11;;;;;;;;;;;;;;;;;;5053086;28;19925;-61
2023/04/14 13:56:37;;;;;;;;;;;;;;;;;;5053665;28;20337;-61
2023/04/14 13:59:03;;;;;;;;;;;;;;;;;;5053545;28;19990;-61
2023/04/14 14:01:29;;;;;;;;;;;;;;;;;;5053188;28;19947;-61
2023/04/14 14:03:55;;;;;;;;;;;;;;;;;;5053575;28;20023;-61
2023/04/14 14:06:21;;;;;;;;;;;;;;;;;;5053547;28;19925;-61
2023/04/14 14:08:46;;;;;;;;;;;;;;;;;;5052814;28;20327;-61
2023/04/14 14:11:12;;;;;;;;;;;;;;;;;;5053417;28;19944;-61
2023/04/14 14:13:39;;;;;;;;;;;;;;;;;;5053289;28;20000;-61
2023/04/14 14:16:05;;;;;;;;;;;;;;;;;;5052909;28;20449;-61
2023/04/14 14:18:32;;;;;;;;;;;;;;;;;;5053315;28;19924;-61
2023/04/14 14:20:58;;;;;;;;;;;;;;;;;;5052859;28;20498;-61
2023/04/14 14:23:24;;;;;;;;;;;;;;;;;;5052233;28;20063;-61
2023/04/14 14:25:50;;;;;;;;;;;;;;;;;;5052509;28;19932;-61
2023/04/14 14:28:16;;;;;;;;;;;;;;;;;;5052841;28;19931;-62
2023/04/14 14:30:42;;;;;;;;;;;;;;;;;;5051021;28;19928;-62
2023/04/14 14:33:08;;;;;;;;;;;;;;;;;;5053046;28;19955;-62
2023/04/14 14:35:34;;;;;;;;;;;;;;;;;;5052919;28;19925;-62
2023/04/14 14:38:00;;;;;;;;;;;;;;;;;;5052338;28;20426;-62
2023/04/14 14:40:26;;;;;;;;;;;;;;;;;;5052682;28;20010;-62
2023/04/14 14:42:52;;;;;;;;;;;;;;;;;;5052728;28;19921;-62
2023/04/14 14:45:18;;;;;;;;;;;;;;;;;;5052235;28;19920;-62
2023/04/14 14:47:45;;;;;;;;;;;;;;;;;;5052424;28;19928;-62
2023/04/14 14:50:10;;;;;;;;;;;;;;;;;;5051338;28;20015;-62
2023/04/14 14:52:36;;;;;;;;;;;;;;;;;;5050598;28;20400;-62
2023/04/14 14:55:03;;;;;;;;;;;;;;;;;;5052630;28;19958;-62
2023/04/14 14:57:29;;;;;;;;;;;;;;;;;;5052488;28;20022;-62
2023/04/14 14:59:55;;;;;;;;;;;;;;;;;;5051928;28;20268;-62
2023/04/14 15:02:21;;;;;;;;;;;;;;;;;;5050878;28;19928;-62
2023/04/14 15:04:47;;;;;;;;;;;;;;;;;;5052393;28;20003;-62
2023/04/14 15:07:13;;;;;;;;;;;;;;;;;;5051672;28;19992;-62
2023/04/14 15:09:39;;;;;;;;;;;;;;;;;;5050984;28;19925;-63
2023/04/14 15:12:05;;;;;;;;;;;;;;;;;;5052053;28;19928;-62
2023/04/14 15:14:31;;;;;;;;;;;;;;;;;;5051734;28;20557;-62
2023/04/14 15:16:57;;;;;;;;;;;;;;;;;;5052007;28;20375;-62
2023/04/14 15:19:23;;;;;;;;;;;;;;;;;;5051773;28;19924;-62
2023/04/14 15:21:50;;;;;;;;;;;;;;;;;;5051004;28;19970;-62
2023/04/14 15:24:16;;;;;;;;;;;;;;;;;;5051849;28;19921;-62
2023/04/14 15:26:42;;;;;;;;;;;;;;;;;;5051750;28;19924;-62
2023/04/14 15:29:08;;;;;;;;;;;;;;;;;;5051318;28;19928;-62
2023/04/14 15:31:34;;;;;;;;;;;;;;;;;;5051713;28;19931;-62
2023/04/14 15:34:03;;;;;;;;;;;;;;;;;;5051797;28;19964;-62
2023/04/14 15:36:30;;;;;;;;;;;;;;;;;;5051349;28;20496;-62
2023/04/14 15:38:56;;;;;;;;;;;;;;;;;;5051255;28;20658;-62
2023/04/14 15:41:22;;;;;;;;;;;;;;;;;;5051159;28;19921;-62
2023/04/14 15:43:48;;;;;;;;;;;;;;;;;;5051707;28;19943;-62
2023/04/14 15:46:14;;;;;;;;;;;;;;;;;;5051316;28;20016;-62
2023/04/14 15:48:40;;;;;;;;;;;;;;;;;;5051568;28;19928;-62
2023/04/14 15:51:06;;;;;;;;;;;;;;;;;;5051669;28;19921;-62
2023/04/14 15:53:32;;;;;;;;;;;;;;;;;;5051197;28;19921;-62
2023/04/14 15:55:58;;;;;;;;;;;;;;;;;;5051690;28;19921;-62
2023/04/14 15:58:24;;;;;;;;;;;;;;;;;;5051599;28;19927;-62
2023/04/14 16:00:52;;;;;;;;;;;;;;;;;;5050420;28;19924;-62
2023/04/14 16:03:18;;;;;;;;;;;;;;;;;;5051387;28;20467;-62
2023/04/14 16:05:44;;;;;;;;;;;;;;;;;;5051373;28;19924;-62
2023/04/14 16:08:10;;;;;;;;;;;;;;;;;;5050319;28;19960;-62
2023/04/14 16:10:36;;;;;;;;;;;;;;;;;;5051214;28;19924;-62
2023/04/14 16:13:02;;;;;;;;;;;;;;;;;;5051238;28;20532;-62
2023/04/14 16:15:28;;;;;;;;;;;;;;;;;;5050678;28;19974;-62
2023/04/14 16:17:55;;;;;;;;;;;;;;;;;;5050840;28;19931;-62
2023/04/14 16:20:21;;;;;;;;;;;;;;;;;;5050941;28;19921;-62
2023/04/14 16:22:48;;;;;;;;;;;;;;;;;;5050368;28;20357;-62
2023/04/14 16:25:14;;;;;;;;;;;;;;;;;;5050833;28;19924;-62
2023/04/14 16:27:40;;;;;;;;;;;;;;;;;;5051092;28;20621;-62
2023/04/14 16:30:06;;;;;;;;;;;;;;;;;;5048905;28;20016;-62
2023/04/14 16:32:32;;;;;;;;;;;;;;;;;;5050770;28;19927;-62
2023/04/14 16:34:58;;;;;;;;;;;;;;;;;;5050667;28;19921;-61
2023/04/14 16:37:24;;;;;;;;;;;;;;;;;;5050160;28;19982;-61